Latest Coastal Weather Observations for Browse Island

IDD60701

Issued at 5:11 pm CST Friday 20 January 2017 (issued every 10 minutes, with the page automatically refreshed every 10 minutes)

About coastal observations | Map of coastal stations | Coastal observations for NT | Marine services | Other Formats
Station Details ID: 200784 Name: BROWSE ISLAND Lat: -14.11 Lon: 123.55 Height: 3.7 m
Data from the previous 72 hours. | See also: Recent months at Browse Island
Date/Time
CST
Temp
°C
Wind Pressure Rain since
9am
mm
Weather Cloud Vis
km
Sea
Height
m
Swell
Dir  Spd
kts
Gust
kts
hPa Trend Height
m
Period
s
Dir
20/05:00pm 28.4 WNW 14 16 1005.4 - - - - - - - - -
20/04:30pm 28.3 WNW 15 18 1005.6 - - - - - - - - -
20/04:00pm 28.4 WNW 16 18 1005.7 - - - - - - - - -
20/03:30pm 28.3 WNW 19 21 1005.9 - - - - - - - - -
20/03:00pm 27.9 WNW 14 17 1006.2 - - - - - - - - -
20/02:30pm 27.7 WNW 17 19 1006.5 - - - - - - - - -
20/02:00pm 27.4 WNW 13 15 1006.8 - - - - - - - - -
20/01:30pm 27.0 W 14 17 1007.1 - - - - - - - - -
20/01:00pm 26.4 WSW 18 22 1007.3 - - - - - - - - -
20/12:30pm 27.1 WNW 13 15 1007.8 - - - - - - - - -
20/12:00pm 26.5 NW 14 16 1008.2 - - - - - - - - -
20/11:30am 26.6 NW 18 21 1008.4 - - - - - - - - -
20/11:00am 26.8 WNW 16 19 1008.6 - - - - - - - - -
20/10:30am 26.6 W 18 22 1008.6 - - - - - - - - -
20/10:00am 26.2 W 20 24 1008.2 - - - - - - - - -
20/09:30am 25.6 W 22 25 1008.0 - - - - - - - - -
20/09:00am 26.2 WNW 20 28 1007.7 - - - - - - - - -
20/08:43am 25.5 WNW 19 32 1007.6 - - - - - - - - -
20/08:30am 27.5 W 15 19 1007.4 - - - - - - - - -
20/08:00am 27.9 W 14 16 1006.8 - - - - - - - - -
20/07:30am 26.5 W 16 18 1006.4 - - - - - - - - -
20/07:00am 27.5 W 17 22 1006.1 - - - - - - - - -
20/06:30am 28.0 W 19 23 1005.9 - - - - - - - - -
20/06:00am 27.2 WSW 19 22 1005.8 - - - - - - - - -
20/05:45am 27.4 W 17 24 1005.5 - - - - - - - - -
20/05:30am 28.7 WNW 15 17 1005.4 - - - - - - - - -
20/05:00am 28.7 WNW 14 16 1005.4 - - - - - - - - -
20/04:30am 28.8 WNW 17 20 1005.7 - - - - - - - - -
20/04:00am 28.8 WNW 16 18 1005.8 - - - - - - - - -
20/03:30am 28.7 WNW 16 18 1005.8 - - - - - - - - -
20/03:00am 28.9 WNW 16 17 1005.8 - - - - - - - - -
20/02:30am 28.7 WNW 16 20 1005.8 - - - - - - - - -
20/02:00am 28.8 WNW 16 18 1006.0 - - - - - - - - -
20/01:30am 28.9 WNW 18 20 1006.5 - - - - - - - - -
20/01:00am 28.9 WNW 17 20 1006.8 - - - - - - - - -
20/12:30am 29.0 WNW 17 20 1007.4 - - - - - - - - -
20/12:00am 28.8 WNW 17 21 1007.5 - - - - - - - - -
 
Date/Time
CST
Temp
°C
Wind Pressure Rain since
9am
mm
Weather Cloud Vis
km
Sea
Height
m
Swell
Dir  Spd
kts
Gust
kts
hPa Trend Height
m
Period
s
Dir
19/11:42pm 27.9 WNW 20 25 1007.5 - - - - - - - - -
19/11:30pm 28.6 NW 15 19 1007.6 - - - - - - - - -
19/11:00pm 28.7 NW 14 17 1007.7 - - - - - - - - -
19/10:30pm 28.7 NW 16 18 1007.4 - - - - - - - - -
19/10:00pm 28.8 NW 16 19 1007.3 - - - - - - - - -
19/09:30pm 28.8 WNW 16 19 1007.1 - - - - - - - - -
19/09:00pm 28.7 WNW 16 19 1006.7 - - - - - - - - -
19/08:30pm 28.8 WNW 18 20 1006.3 - - - - - - - - -
19/08:00pm 28.7 WNW 17 19 1006.1 - - - - - - - - -
19/07:30pm 28.7 WNW 17 19 1005.9 - - - - - - - - -
19/07:00pm 28.8 WNW 15 18 1005.8 - - - - - - - - -
19/06:30pm 28.7 WNW 16 18 1005.6 - - - - - - - - -
19/06:00pm 28.7 NW 16 18 1005.5 - - - - - - - - -
19/05:30pm 28.8 NW 15 19 1005.4 - - - - - - - - -
19/05:00pm 28.7 NW 15 17 1005.6 - - - - - - - - -
19/04:30pm 28.6 NW 17 19 1005.9 - - - - - - - - -
19/04:00pm 28.5 NW 16 19 1006.4 - - - - - - - - -
19/03:30pm 28.6 NW 17 19 1006.7 - - - - - - - - -
19/03:00pm 28.7 NW 16 19 1007.0 - - - - - - - - -
19/02:30pm 28.6 NW 15 17 1007.3 - - - - - - - - -
19/02:00pm 28.8 NW 15 17 1007.6 - - - - - - - - -
19/01:30pm 28.7 NW 15 18 1008.0 - - - - - - - - -
19/01:00pm 28.5 NW 14 16 1008.6 - - - - - - - - -
19/12:30pm 28.4 NNW 14 16 1008.9 - - - - - - - - -
19/12:00pm 28.8 NNW 12 14 1009.2 - - - - - - - - -
19/11:30am 29.0 NW 12 14 1009.7 - - - - - - - - -
19/11:00am 29.1 NW 13 15 1010.0 - - - - - - - - -
19/10:30am 29.0 NW 12 14 1010.1 - - - - - - - - -
19/10:00am 28.9 NW 11 13 1010.3 - - - - - - - - -
19/09:30am 29.0 WNW 11 13 1010.2 - - - - - - - - -
19/09:00am 28.6 NW 8 9 1009.9 - - - - - - - - -
19/08:30am 28.4 NW 6 7 1009.4 - - - - - - - - -
19/08:00am 28.2 WNW 5 6 1009.2 - - - - - - - - -
19/07:30am 27.2 NW 14 16 1009.1 - - - - - - - - -
19/07:00am 28.8 NW 13 17 1008.6 - - - - - - - - -
19/06:30am 28.8 WNW 11 13 1008.3 - - - - - - - - -
19/06:00am 28.7 WNW 11 13 1008.0 - - - - - - - - -
19/05:30am 28.7 WNW 11 13 1007.7 - - - - - - - - -
19/05:00am 28.7 WNW 12 15 1007.7 - - - - - - - - -
19/04:30am 28.6 WNW 12 13 1007.9 - - - - - - - - -
19/04:00am 28.7 W 11 13 1008.0 - - - - - - - - -
19/03:30am 28.8 WNW 12 13 1007.9 - - - - - - - - -
19/03:00am 28.8 WNW 12 14 1008.3 - - - - - - - - -
19/02:30am 28.9 W 14 16 1008.5 - - - - - - - - -
19/02:00am 28.8 WNW 14 16 1008.5 - - - - - - - - -
19/01:30am 28.9 WNW 14 15 1008.6 - - - - - - - - -
19/01:00am 28.9 WNW 14 16 1008.9 - - - - - - - - -
19/12:30am 29.0 WNW 14 16 1009.0 - - - - - - - - -
19/12:00am 29.0 WNW 12 14 1009.3 - - - - - - - - -
 
Date/Time
CST
Temp
°C
Wind Pressure Rain since
9am
mm
Weather Cloud Vis
km
Sea
Height
m
Swell
Dir  Spd
kts
Gust
kts
hPa Trend Height
m
Period
s
Dir
18/11:30pm 29.0 WNW 14 15 1009.1 - - - - - - - - -
18/11:00pm 28.9 WNW 13 15 1008.8 - - - - - - - - -
18/10:30pm 29.0 WNW 13 15 1008.5 - - - - - - - - -
18/10:00pm 28.4 WNW 10 12 1008.2 - - - - - - - - -
18/09:30pm 28.3 WNW 11 13 1007.9 - - - - - - - - -
18/09:00pm 27.8 WNW 9 10 1007.7 - - - - - - - - -
18/08:30pm 28.0 W 7 8 1007.8 - - - - - - - - -
18/08:00pm 27.8 WSW 9 10 1007.7 - - - - - - - - -
18/07:30pm 27.4 SW 12 14 1007.3 - - - - - - - - -
18/07:00pm 27.3 SW 17 21 1007.1 - - - - - - - - -
18/06:30pm 28.6 WSW 15 17 1007.0 - - - - - - - - -
18/06:00pm 28.6 WSW 17 19 1006.9 - - - - - - - - -
18/05:30pm 28.5 W 16 19 1006.8 - - - - - - - - -
18/05:00pm 28.5 W 19 22 1006.8 - - - - - - - - -
18/04:30pm 28.6 W 18 21 1007.0 - - - - - - - - -
18/04:00pm 28.7 WNW 15 17 1007.2 - - - - - - - - -
18/03:30pm 28.8 W 13 18 1007.5 - - - - - - - - -
18/03:00pm 28.1 W 11 13 1007.6 - - - - - - - - -
18/02:30pm 27.7 W 10 12 1008.0 - - - - - - - - -
18/02:00pm 27.7 W 10 12 1008.5 - - - - - - - - -
18/01:30pm 27.3 W 11 14 1009.0 - - - - - - - - -
18/01:00pm 27.0 WSW 12 14 1009.3 - - - - - - - - -
18/12:30pm 26.1 W 17 22 1009.4 - - - - - - - - -
18/12:00pm 26.3 NW 16 19 1009.3 - - - - - - - - -
18/11:30am 25.9 NW 19 23 1009.8 - - - - - - - - -
18/11:11am 25.2 NNW 25 30 1010.1 - - - - - - - - -
18/11:00am 25.9 NW 24 29 1010.0 - - - - - - - - -
18/10:51am 26.8 NW 16 26 1009.8 - - - - - - - - -
18/10:30am 28.8 NW 14 17 1009.9 - - - - - - - - -
18/10:00am 28.8 WNW 16 18 1009.6 - - - - - - - - -
18/09:30am 28.7 WNW 15 18 1009.6 - - - - - - - - -
18/09:00am 28.5 WNW 15 18 1009.2 - - - - - - - - -
18/08:30am 28.5 NW 14 16 1009.1 - - - - - - - - -
18/08:00am 28.3 NW 13 16 1009.1 - - - - - - - - -
18/07:30am 28.6 NW 14 17 1008.4 - - - - - - - - -
18/07:00am 28.4 NW 15 17 1007.8 - - - - - - - - -
18/06:30am 28.4 WNW 18 21 1007.5 - - - - - - - - -
18/06:00am 28.9 WNW 16 19 1007.2 - - - - - - - - -
18/05:30am 28.9 WNW 17 19 1006.9 - - - - - - - - -
18/05:00am 28.8 WNW 16 19 1006.8 - - - - - - - - -
18/04:30am 29.0 WNW 15 17 1006.9 - - - - - - - - -
18/04:00am 29.0 WNW 15 17 1007.0 - - - - - - - - -
18/03:30am 28.9 W 16 18 1007.2 - - - - - - - - -
18/03:00am 29.0 WNW 15 18 1007.4 - - - - - - - - -
18/02:30am 29.0 WNW 15 17 1007.5 - - - - - - - - -
18/02:00am 29.2 WNW 15 18 1007.5 - - - - - - - - -
18/01:30am 29.1 WNW 15 17 1007.8 - - - - - - - - -
18/01:00am 29.1 WNW 15 17 1008.1 - - - - - - - - -
18/12:30am 29.1 WNW 14 17 1008.4 - - - - - - - - -
18/12:00am 26.6 W 17 20 1008.9 - - - - - - - - -
 
Date/Time
CST
Temp
°C
Wind Pressure Rain since
9am
mm
Weather Cloud Vis
km
Sea
Height
m
Swell
Dir  Spd
kts
Gust
kts
hPa Trend Height
m
Period
s
Dir
17/11:30pm 28.4 WNW 13 21 1008.7 - - - - - - - - -
17/11:00pm 29.0 WNW 13 15 1008.8 - - - - - - - - -
17/10:30pm 28.7 NW 9 11 1008.7 - - - - - - - - -
17/10:00pm 27.6 WNW 18 22 1008.6 - - - - - - - - -
17/09:30pm 29.2 W 12 13 1008.2 - - - - - - - - -
17/09:00pm 29.0 WNW 12 14 1007.8 - - - - - - - - -
17/08:30pm 29.1 WNW 12 14 1007.5 - - - - - - - - -
17/08:00pm 29.0 WNW 12 15 1007.2 - - - - - - - - -
17/07:30pm 29.1 WNW 9 11 1006.9 - - - - - - - - -
17/07:00pm 28.9 W 13 15 1006.4 - - - - - - - - -

Other Formats:

Comma delimited format used in spreadsheet applications
http://www.bom.gov.au/fwo/IDD60701/IDD60701.94103.axf

JavaScript Object Notation format (JSON) in row-major order
http://www.bom.gov.au/fwo/IDD60701/IDD60701.94103.json